Pinto, Spain
Current Conditions -  °F | °C
As of 4:00 PM on Friday 19 Dec 2014 (Local Time) from LEGT Reporting Station
Clear Clear  
Wind Chill: 54°   Ceiling: Unl
Heat Index: 54°   Visibility: 6mi
Dew Point: 46°   Wind: 2mph
Humidity: 77%   Direction: 140°SE
Pressure: 30.39"   Gusts: NA
Location:  40.24°N, 3.7°W
Report Text: LEGT 191500Z 14002KT CAVOK 12/08 Q1029
Loading
Personal Weather Stations






























Interactive Weather Map New forecast layout! Learn more

10-Day Weather Forecast

Advertisements
Track Severe Weather on mobile